sensor_id;sensor_type;location;lat;lon;timestamp;P1;durP1;ratioP1;P2;durP2;ratioP2
23302;SDS011;11820;48.738;9.092;2022-12-28T00:00:19;4.77;;;3.30;;
23302;SDS011;11820;48.738;9.092;2022-12-28T00:02:44;8.53;;;3.40;;
23302;SDS011;11820;48.738;9.092;2022-12-28T00:05:09;5.13;;;3.03;;
23302;SDS011;11820;48.738;9.092;2022-12-28T00:07:35;3.17;;;2.47;;
23302;SDS011;11820;48.738;9.092;2022-12-28T00:10:00;5.03;;;3.37;;
23302;SDS011;11820;48.738;9.092;2022-12-28T00:12:25;4.70;;;2.93;;
23302;SDS011;11820;48.738;9.092;2022-12-28T00:14:51;3.83;;;2.70;;
23302;SDS011;11820;48.738;9.092;2022-12-28T00:17:16;7.10;;;3.07;;
23302;SDS011;11820;48.738;9.092;2022-12-28T00:19:41;4.10;;;2.70;;
23302;SDS011;11820;48.738;9.092;2022-12-28T00:22:07;6.53;;;3.20;;
23302;SDS011;11820;48.738;9.092;2022-12-28T00:24:32;3.20;;;2.60;;
23302;SDS011;11820;48.738;9.092;2022-12-28T00:26:58;3.43;;;2.73;;
23302;SDS011;11820;48.738;9.092;2022-12-28T00:29:24;3.77;;;2.83;;
23302;SDS011;11820;48.738;9.092;2022-12-28T00:31:49;4.50;;;2.33;;
23302;SDS011;11820;48.738;9.092;2022-12-28T00:34:14;3.10;;;2.50;;
23302;SDS011;11820;48.738;9.092;2022-12-28T00:36:40;4.10;;;2.60;;
23302;SDS011;11820;48.738;9.092;2022-12-28T00:39:05;4.23;;;2.30;;
23302;SDS011;11820;48.738;9.092;2022-12-28T00:41:31;3.10;;;2.27;;
23302;SDS011;11820;48.738;9.092;2022-12-28T00:43:56;2.10;;;1.83;;
23302;SDS011;11820;48.738;9.092;2022-12-28T00:46:21;2.93;;;2.00;;
23302;SDS011;11820;48.738;9.092;2022-12-28T00:48:47;3.63;;;2.27;;
23302;SDS011;11820;48.738;9.092;2022-12-28T00:51:17;3.63;;;2.57;;
23302;SDS011;11820;48.738;9.092;2022-12-28T00:53:43;3.73;;;2.30;;
23302;SDS011;11820;48.738;9.092;2022-12-28T00:56:13;2.30;;;1.93;;
23302;SDS011;11820;48.738;9.092;2022-12-28T00:58:40;6.17;;;2.57;;
23302;SDS011;11820;48.738;9.092;2022-12-28T01:01:10;2.40;;;2.20;;
23302;SDS011;11820;48.738;9.092;2022-12-28T01:03:37;3.83;;;2.20;;
23302;SDS011;11820;48.738;9.092;2022-12-28T01:06:06;2.83;;;2.23;;
23302;SDS011;11820;48.738;9.092;2022-12-28T01:08:34;4.93;;;2.43;;
23302;SDS011;11820;48.738;9.092;2022-12-28T01:11:04;2.87;;;2.33;;
23302;SDS011;11820;48.738;9.092;2022-12-28T01:13:51;3.40;;;2.03;;
23302;SDS011;11820;48.738;9.092;2022-12-28T01:16:22;4.23;;;2.23;;
23302;SDS011;11820;48.738;9.092;2022-12-28T01:18:50;3.17;;;2.13;;
23302;SDS011;11820;48.738;9.092;2022-12-28T01:21:18;3.17;;;2.30;;
23302;SDS011;11820;48.738;9.092;2022-12-28T01:23:46;4.17;;;2.30;;
23302;SDS011;11820;48.738;9.092;2022-12-28T01:26:13;4.50;;;2.57;;
23302;SDS011;11820;48.738;9.092;2022-12-28T01:28:39;3.50;;;2.30;;
23302;SDS011;11820;48.738;9.092;2022-12-28T01:31:06;5.77;;;2.40;;
23302;SDS011;11820;48.738;9.092;2022-12-28T01:33:36;7.07;;;2.43;;
23302;SDS011;11820;48.738;9.092;2022-12-28T01:36:35;4.87;;;2.50;;
23302;SDS011;11820;48.738;9.092;2022-12-28T01:38:56;4.13;;;2.80;;
23302;SDS011;11820;48.738;9.092;2022-12-28T01:41:23;3.10;;;2.07;;
23302;SDS011;11820;48.738;9.092;2022-12-28T01:46:17;3.37;;;2.10;;
23302;SDS011;11820;48.738;9.092;2022-12-28T01:51:24;3.13;;;2.20;;
23302;SDS011;11820;48.738;9.092;2022-12-28T01:53:55;4.50;;;1.90;;
23302;SDS011;11820;48.738;9.092;2022-12-28T01:56:23;4.03;;;1.90;;
23302;SDS011;11820;48.738;9.092;2022-12-28T01:58:50;2.33;;;1.60;;
23302;SDS011;11820;48.738;9.092;2022-12-28T02:01:15;4.23;;;1.70;;
23302;SDS011;11820;48.738;9.092;2022-12-28T02:03:41;2.20;;;1.70;;
23302;SDS011;11820;48.738;9.092;2022-12-28T02:06:08;2.80;;;1.30;;
23302;SDS011;11820;48.738;9.092;2022-12-28T02:11:17;2.77;;;1.73;;
23302;SDS011;11820;48.738;9.092;2022-12-28T02:13:44;5.17;;;1.93;;
23302;SDS011;11820;48.738;9.092;2022-12-28T02:16:11;2.87;;;1.70;;
23302;SDS011;11820;48.738;9.092;2022-12-28T02:18:37;1.90;;;1.63;;
23302;SDS011;11820;48.738;9.092;2022-12-28T02:23:37;3.07;;;1.50;;
23302;SDS011;11820;48.738;9.092;2022-12-28T02:26:29;2.87;;;1.50;;
23302;SDS011;11820;48.738;9.092;2022-12-28T02:32:17;2.57;;;1.40;;
23302;SDS011;11820;48.738;9.092;2022-12-28T02:35:07;1.73;;;1.37;;
23302;SDS011;11820;48.738;9.092;2022-12-28T02:37:37;3.70;;;1.60;;
23302;SDS011;11820;48.738;9.092;2022-12-28T02:40:13;2.73;;;1.40;;
23302;SDS011;11820;48.738;9.092;2022-12-28T02:42:43;2.10;;;1.50;;
23302;SDS011;11820;48.738;9.092;2022-12-28T02:45:30;3.67;;;1.43;;
23302;SDS011;11820;48.738;9.092;2022-12-28T02:48:14;2.03;;;1.20;;
23302;SDS011;11820;48.738;9.092;2022-12-28T02:51:01;1.60;;;1.00;;
23302;SDS011;11820;48.738;9.092;2022-12-28T02:54:00;1.63;;;0.80;;
23302;SDS011;11820;48.738;9.092;2022-12-28T03:01:53;3.57;;;1.20;;
23302;SDS011;11820;48.738;9.092;2022-12-28T03:07:16;1.53;;;1.17;;
23302;SDS011;11820;48.738;9.092;2022-12-28T03:10:19;3.57;;;1.20;;
23302;SDS011;11820;48.738;9.092;2022-12-28T03:13:00;1.73;;;1.30;;
23302;SDS011;11820;48.738;9.092;2022-12-28T03:15:33;1.57;;;1.23;;
23302;SDS011;11820;48.738;9.092;2022-12-28T03:20:58;1.67;;;0.77;;
23302;SDS011;11820;48.738;9.092;2022-12-28T03:23:45;1.80;;;0.97;;
23302;SDS011;11820;48.738;9.092;2022-12-28T03:26:31;3.37;;;1.30;;
23302;SDS011;11820;48.738;9.092;2022-12-28T03:29:19;1.30;;;1.20;;
23302;SDS011;11820;48.738;9.092;2022-12-28T03:32:06;1.50;;;1.10;;
23302;SDS011;11820;48.738;9.092;2022-12-28T03:34:33;2.63;;;1.20;;
23302;SDS011;11820;48.738;9.092;2022-12-28T03:37:01;2.03;;;1.30;;
23302;SDS011;11820;48.738;9.092;2022-12-28T03:39:33;1.63;;;1.33;;
23302;SDS011;11820;48.738;9.092;2022-12-28T03:42:28;1.60;;;1.17;;
23302;SDS011;11820;48.738;9.092;2022-12-28T03:45:21;3.70;;;1.20;;
23302;SDS011;11820;48.738;9.092;2022-12-28T03:47:53;1.97;;;1.17;;
23302;SDS011;11820;48.738;9.092;2022-12-28T03:50:20;2.50;;;1.27;;
23302;SDS011;11820;48.738;9.092;2022-12-28T03:52:47;2.20;;;1.30;;
23302;SDS011;11820;48.738;9.092;2022-12-28T03:55:13;1.67;;;1.20;;
23302;SDS011;11820;48.738;9.092;2022-12-28T03:57:39;2.30;;;1.20;;
23302;SDS011;11820;48.738;9.092;2022-12-28T04:00:05;2.63;;;1.57;;
23302;SDS011;11820;48.738;9.092;2022-12-28T04:02:33;3.53;;;1.43;;
23302;SDS011;11820;48.738;9.092;2022-12-28T04:04:58;1.90;;;1.03;;
23302;SDS011;11820;48.738;9.092;2022-12-28T04:07:24;2.83;;;1.60;;
23302;SDS011;11820;48.738;9.092;2022-12-28T04:09:49;2.13;;;1.00;;
23302;SDS011;11820;48.738;9.092;2022-12-28T04:12:14;2.70;;;1.30;;
23302;SDS011;11820;48.738;9.092;2022-12-28T04:14:40;1.87;;;1.50;;
23302;SDS011;11820;48.738;9.092;2022-12-28T04:17:05;2.17;;;1.27;;
23302;SDS011;11820;48.738;9.092;2022-12-28T04:19:30;3.23;;;1.73;;
23302;SDS011;11820;48.738;9.092;2022-12-28T04:21:56;2.17;;;1.33;;
23302;SDS011;11820;48.738;9.092;2022-12-28T04:24:21;2.60;;;1.37;;
23302;SDS011;11820;48.738;9.092;2022-12-28T04:26:46;3.33;;;1.57;;
23302;SDS011;11820;48.738;9.092;2022-12-28T04:29:12;5.47;;;1.57;;
23302;SDS011;11820;48.738;9.092;2022-12-28T04:31:37;2.97;;;1.30;;
23302;SDS011;11820;48.738;9.092;2022-12-28T04:34:03;2.20;;;1.23;;
23302;SDS011;11820;48.738;9.092;2022-12-28T04:36:30;3.70;;;1.37;;
23302;SDS011;11820;48.738;9.092;2022-12-28T04:38:56;1.40;;;1.30;;
23302;SDS011;11820;48.738;9.092;2022-12-28T04:41:23;2.20;;;1.17;;
23302;SDS011;11820;48.738;9.092;2022-12-28T04:43:48;1.97;;;1.13;;
23302;SDS011;11820;48.738;9.092;2022-12-28T04:46:14;2.53;;;1.93;;
23302;SDS011;11820;48.738;9.092;2022-12-28T04:48:40;1.30;;;1.20;;
23302;SDS011;11820;48.738;9.092;2022-12-28T04:51:10;2.70;;;1.50;;
23302;SDS011;11820;48.738;9.092;2022-12-28T04:53:41;2.87;;;1.50;;
23302;SDS011;11820;48.738;9.092;2022-12-28T04:56:07;1.37;;;1.10;;
23302;SDS011;11820;48.738;9.092;2022-12-28T04:58:33;2.10;;;1.20;;
23302;SDS011;11820;48.738;9.092;2022-12-28T05:01:02;4.73;;;2.03;;
23302;SDS011;11820;48.738;9.092;2022-12-28T05:03:29;3.10;;;1.27;;
23302;SDS011;11820;48.738;9.092;2022-12-28T05:05:58;1.63;;;1.37;;
23302;SDS011;11820;48.738;9.092;2022-12-28T05:08:24;2.83;;;1.43;;
23302;SDS011;11820;48.738;9.092;2022-12-28T05:10:49;1.63;;;1.17;;
23302;SDS011;11820;48.738;9.092;2022-12-28T05:13:15;1.30;;;1.10;;
23302;SDS011;11820;48.738;9.092;2022-12-28T05:15:40;3.03;;;1.23;;
23302;SDS011;11820;48.738;9.092;2022-12-28T05:18:05;2.13;;;1.50;;
23302;SDS011;11820;48.738;9.092;2022-12-28T05:20:30;2.87;;;1.27;;
23302;SDS011;11820;48.738;9.092;2022-12-28T05:22:56;1.57;;;1.20;;
23302;SDS011;11820;48.738;9.092;2022-12-28T05:25:21;2.70;;;1.10;;
23302;SDS011;11820;48.738;9.092;2022-12-28T05:27:46;6.27;;;1.33;;
23302;SDS011;11820;48.738;9.092;2022-12-28T05:30:12;3.30;;;1.37;;
23302;SDS011;11820;48.738;9.092;2022-12-28T05:32:37;3.23;;;1.43;;
23302;SDS011;11820;48.738;9.092;2022-12-28T05:35:03;1.83;;;1.03;;
23302;SDS011;11820;48.738;9.092;2022-12-28T05:37:28;3.97;;;1.10;;
23302;SDS011;11820;48.738;9.092;2022-12-28T05:39:53;2.57;;;1.33;;
23302;SDS011;11820;48.738;9.092;2022-12-28T05:42:19;1.80;;;1.20;;
23302;SDS011;11820;48.738;9.092;2022-12-28T05:44:44;3.60;;;1.33;;
23302;SDS011;11820;48.738;9.092;2022-12-28T05:47:09;1.50;;;1.20;;
23302;SDS011;11820;48.738;9.092;2022-12-28T05:49:35;2.23;;;1.10;;
23302;SDS011;11820;48.738;9.092;2022-12-28T05:52:00;2.43;;;1.57;;
23302;SDS011;11820;48.738;9.092;2022-12-28T05:54:25;1.30;;;1.20;;
23302;SDS011;11820;48.738;9.092;2022-12-28T05:56:50;3.30;;;1.33;;
23302;SDS011;11820;48.738;9.092;2022-12-28T05:59:16;2.07;;;1.30;;
23302;SDS011;11820;48.738;9.092;2022-12-28T06:01:42;2.77;;;1.13;;
23302;SDS011;11820;48.738;9.092;2022-12-28T06:04:15;2.67;;;1.40;;
23302;SDS011;11820;48.738;9.092;2022-12-28T06:06:43;1.63;;;1.13;;
23302;SDS011;11820;48.738;9.092;2022-12-28T06:09:10;2.00;;;1.23;;
23302;SDS011;11820;48.738;9.092;2022-12-28T06:11:35;1.43;;;1.17;;
23302;SDS011;11820;48.738;9.092;2022-12-28T06:14:01;1.83;;;1.13;;
23302;SDS011;11820;48.738;9.092;2022-12-28T06:16:29;1.67;;;1.03;;
23302;SDS011;11820;48.738;9.092;2022-12-28T06:18:55;1.63;;;0.93;;
23302;SDS011;11820;48.738;9.092;2022-12-28T06:21:23;3.07;;;1.20;;
23302;SDS011;11820;48.738;9.092;2022-12-28T06:23:52;0.90;;;0.90;;
23302;SDS011;11820;48.738;9.092;2022-12-28T06:26:21;2.80;;;1.00;;
23302;SDS011;11820;48.738;9.092;2022-12-28T06:28:47;1.13;;;0.83;;
23302;SDS011;11820;48.738;9.092;2022-12-28T06:31:24;3.90;;;1.13;;
23302;SDS011;11820;48.738;9.092;2022-12-28T06:33:52;2.23;;;1.30;;
23302;SDS011;11820;48.738;9.092;2022-12-28T06:36:20;2.50;;;1.30;;
23302;SDS011;11820;48.738;9.092;2022-12-28T06:39:01;2.40;;;1.17;;
23302;SDS011;11820;48.738;9.092;2022-12-28T06:41:28;3.03;;;1.20;;
23302;SDS011;11820;48.738;9.092;2022-12-28T06:43:53;1.57;;;0.90;;
23302;SDS011;11820;48.738;9.092;2022-12-28T06:46:20;2.80;;;1.10;;
23302;SDS011;11820;48.738;9.092;2022-12-28T06:48:47;3.20;;;1.27;;
23302;SDS011;11820;48.738;9.092;2022-12-28T06:51:14;1.70;;;1.20;;
23302;SDS011;11820;48.738;9.092;2022-12-28T06:53:39;2.23;;;1.23;;
23302;SDS011;11820;48.738;9.092;2022-12-28T06:56:06;1.90;;;1.40;;
23302;SDS011;11820;48.738;9.092;2022-12-28T06:58:36;1.20;;;1.10;;
23302;SDS011;11820;48.738;9.092;2022-12-28T07:01:08;2.23;;;1.43;;
23302;SDS011;11820;48.738;9.092;2022-12-28T07:03:38;2.07;;;1.23;;
23302;SDS011;11820;48.738;9.092;2022-12-28T07:06:04;3.80;;;1.60;;
23302;SDS011;11820;48.738;9.092;2022-12-28T07:08:30;1.20;;;1.10;;
23302;SDS011;11820;48.738;9.092;2022-12-28T07:11:00;4.30;;;1.50;;
23302;SDS011;11820;48.738;9.092;2022-12-28T07:13:28;1.50;;;1.40;;
23302;SDS011;11820;48.738;9.092;2022-12-28T07:15:53;2.30;;;1.40;;
23302;SDS011;11820;48.738;9.092;2022-12-28T07:18:19;1.73;;;1.23;;
23302;SDS011;11820;48.738;9.092;2022-12-28T07:20:44;2.80;;;1.50;;
23302;SDS011;11820;48.738;9.092;2022-12-28T07:23:09;3.03;;;1.67;;
23302;SDS011;11820;48.738;9.092;2022-12-28T07:25:35;3.33;;;1.60;;
23302;SDS011;11820;48.738;9.092;2022-12-28T07:28:00;3.67;;;1.23;;
23302;SDS011;11820;48.738;9.092;2022-12-28T07:30:25;2.53;;;1.40;;
23302;SDS011;11820;48.738;9.092;2022-12-28T07:32:50;1.57;;;1.27;;
23302;SDS011;11820;48.738;9.092;2022-12-28T07:35:16;2.43;;;1.60;;
23302;SDS011;11820;48.738;9.092;2022-12-28T07:37:41;3.53;;;1.30;;
23302;SDS011;11820;48.738;9.092;2022-12-28T07:40:07;2.03;;;1.43;;
23302;SDS011;11820;48.738;9.092;2022-12-28T07:42:32;1.40;;;1.30;;
23302;SDS011;11820;48.738;9.092;2022-12-28T07:44:58;2.73;;;1.30;;
23302;SDS011;11820;48.738;9.092;2022-12-28T07:47:23;2.43;;;1.50;;
23302;SDS011;11820;48.738;9.092;2022-12-28T07:49:48;1.93;;;1.50;;
23302;SDS011;11820;48.738;9.092;2022-12-28T07:52:14;4.90;;;1.47;;
23302;SDS011;11820;48.738;9.092;2022-12-28T07:54:39;1.53;;;1.30;;
23302;SDS011;11820;48.738;9.092;2022-12-28T07:57:04;3.10;;;1.47;;
23302;SDS011;11820;48.738;9.092;2022-12-28T07:59:30;3.00;;;1.60;;
23302;SDS011;11820;48.738;9.092;2022-12-28T08:01:55;2.93;;;1.30;;
23302;SDS011;11820;48.738;9.092;2022-12-28T08:04:20;4.63;;;1.33;;
23302;SDS011;11820;48.738;9.092;2022-12-28T08:06:46;2.10;;;1.37;;
23302;SDS011;11820;48.738;9.092;2022-12-28T08:09:13;2.00;;;1.30;;
23302;SDS011;11820;48.738;9.092;2022-12-28T08:11:40;2.33;;;1.23;;
23302;SDS011;11820;48.738;9.092;2022-12-28T08:14:07;2.90;;;1.20;;
23302;SDS011;11820;48.738;9.092;2022-12-28T08:16:34;3.90;;;1.17;;
23302;SDS011;11820;48.738;9.092;2022-12-28T08:19:02;5.00;;;1.20;;
23302;SDS011;11820;48.738;9.092;2022-12-28T08:21:29;2.03;;;1.30;;
23302;SDS011;11820;48.738;9.092;2022-12-28T08:23:56;2.20;;;1.10;;
23302;SDS011;11820;48.738;9.092;2022-12-28T08:26:23;2.13;;;1.17;;
23302;SDS011;11820;48.738;9.092;2022-12-28T08:28:57;1.50;;;1.03;;
23302;SDS011;11820;48.738;9.092;2022-12-28T08:31:25;2.20;;;1.20;;
23302;SDS011;11820;48.738;9.092;2022-12-28T08:33:53;1.90;;;0.90;;
23302;SDS011;11820;48.738;9.092;2022-12-28T08:36:20;1.30;;;1.20;;
23302;SDS011;11820;48.738;9.092;2022-12-28T08:38:46;2.53;;;1.00;;
23302;SDS011;11820;48.738;9.092;2022-12-28T08:41:12;2.63;;;1.40;;
23302;SDS011;11820;48.738;9.092;2022-12-28T08:43:40;1.30;;;1.13;;
23302;SDS011;11820;48.738;9.092;2022-12-28T08:46:07;0.77;;;0.77;;
23302;SDS011;11820;48.738;9.092;2022-12-28T08:48:36;3.90;;;1.27;;
23302;SDS011;11820;48.738;9.092;2022-12-28T08:51:07;2.03;;;1.10;;
23302;SDS011;11820;48.738;9.092;2022-12-28T08:53:34;2.37;;;1.17;;
23302;SDS011;11820;48.738;9.092;2022-12-28T08:56:04;3.23;;;1.30;;
23302;SDS011;11820;48.738;9.092;2022-12-28T08:58:36;1.43;;;1.23;;
23302;SDS011;11820;48.738;9.092;2022-12-28T09:01:09;2.77;;;0.90;;
23302;SDS011;11820;48.738;9.092;2022-12-28T09:03:37;1.70;;;1.00;;
23302;SDS011;11820;48.738;9.092;2022-12-28T09:06:04;2.60;;;1.10;;
23302;SDS011;11820;48.738;9.092;2022-12-28T09:08:31;1.77;;;1.10;;
23302;SDS011;11820;48.738;9.092;2022-12-28T09:11:00;2.70;;;1.27;;
23302;SDS011;11820;48.738;9.092;2022-12-28T09:13:26;1.60;;;1.00;;
23302;SDS011;11820;48.738;9.092;2022-12-28T09:16:26;3.07;;;1.03;;
23302;SDS011;11820;48.738;9.092;2022-12-28T09:18:48;1.40;;;0.80;;
23302;SDS011;11820;48.738;9.092;2022-12-28T09:21:18;1.10;;;0.80;;
23302;SDS011;11820;48.738;9.092;2022-12-28T09:23:45;2.80;;;0.87;;
23302;SDS011;11820;48.738;9.092;2022-12-28T09:26:16;2.00;;;1.17;;
23302;SDS011;11820;48.738;9.092;2022-12-28T09:28:44;1.13;;;0.97;;
23302;SDS011;11820;48.738;9.092;2022-12-28T09:31:14;2.83;;;0.93;;
23302;SDS011;11820;48.738;9.092;2022-12-28T09:33:40;1.77;;;0.80;;
23302;SDS011;11820;48.738;9.092;2022-12-28T09:36:29;3.83;;;1.20;;
23302;SDS011;11820;48.738;9.092;2022-12-28T09:38:56;1.40;;;0.87;;
23302;SDS011;11820;48.738;9.092;2022-12-28T09:46:40;1.70;;;0.93;;
23302;SDS011;11820;48.738;9.092;2022-12-28T09:49:11;1.40;;;0.83;;
23302;SDS011;11820;48.738;9.092;2022-12-28T09:51:42;2.40;;;0.90;;
23302;SDS011;11820;48.738;9.092;2022-12-28T09:54:15;1.67;;;1.00;;
23302;SDS011;11820;48.738;9.092;2022-12-28T09:56:41;2.57;;;0.90;;
23302;SDS011;11820;48.738;9.092;2022-12-28T09:59:09;1.93;;;0.73;;
23302;SDS011;11820;48.738;9.092;2022-12-28T10:01:40;2.77;;;1.47;;
23302;SDS011;11820;48.738;9.092;2022-12-28T10:04:08;2.43;;;0.90;;
23302;SDS011;11820;48.738;9.092;2022-12-28T10:06:36;3.57;;;1.00;;
23302;SDS011;11820;48.738;9.092;2022-12-28T10:09:03;1.10;;;0.90;;
23302;SDS011;11820;48.738;9.092;2022-12-28T10:11:39;1.17;;;0.80;;
23302;SDS011;11820;48.738;9.092;2022-12-28T10:14:39;1.20;;;0.70;;
23302;SDS011;11820;48.738;9.092;2022-12-28T10:16:59;1.60;;;0.80;;
23302;SDS011;11820;48.738;9.092;2022-12-28T10:19:25;1.47;;;1.00;;
23302;SDS011;11820;48.738;9.092;2022-12-28T10:22:00;0.83;;;0.70;;
23302;SDS011;11820;48.738;9.092;2022-12-28T10:24:27;2.60;;;1.00;;
23302;SDS011;11820;48.738;9.092;2022-12-28T10:26:54;0.87;;;0.73;;
23302;SDS011;11820;48.738;9.092;2022-12-28T10:29:22;1.23;;;0.77;;
23302;SDS011;11820;48.738;9.092;2022-12-28T10:31:58;2.20;;;0.70;;
23302;SDS011;11820;48.738;9.092;2022-12-28T10:34:26;2.90;;;0.70;;
23302;SDS011;11820;48.738;9.092;2022-12-28T10:36:53;1.73;;;0.90;;
23302;SDS011;11820;48.738;9.092;2022-12-28T10:39:27;1.70;;;0.70;;
23302;SDS011;11820;48.738;9.092;2022-12-28T10:41:54;1.40;;;0.70;;
23302;SDS011;11820;48.738;9.092;2022-12-28T10:44:25;1.17;;;0.60;;
23302;SDS011;11820;48.738;9.092;2022-12-28T10:46:56;2.47;;;0.77;;
23302;SDS011;11820;48.738;9.092;2022-12-28T10:49:24;2.93;;;0.90;;
23302;SDS011;11820;48.738;9.092;2022-12-28T10:51:59;2.23;;;0.80;;
23302;SDS011;11820;48.738;9.092;2022-12-28T10:54:39;1.07;;;0.80;;
23302;SDS011;11820;48.738;9.092;2022-12-28T10:57:05;1.00;;;0.60;;
23302;SDS011;11820;48.738;9.092;2022-12-28T10:59:30;2.57;;;0.93;;
23302;SDS011;11820;48.738;9.092;2022-12-28T11:05:17;2.93;;;0.87;;
23302;SDS011;11820;48.738;9.092;2022-12-28T11:07:47;2.93;;;0.90;;
23302;SDS011;11820;48.738;9.092;2022-12-28T11:10:26;3.50;;;1.00;;
23302;SDS011;11820;48.738;9.092;2022-12-28T11:12:54;1.57;;;0.83;;
23302;SDS011;11820;48.738;9.092;2022-12-28T11:15:27;1.70;;;0.97;;
23302;SDS011;11820;48.738;9.092;2022-12-28T11:17:59;1.00;;;0.80;;
23302;SDS011;11820;48.738;9.092;2022-12-28T11:20:32;4.57;;;1.50;;
23302;SDS011;11820;48.738;9.092;2022-12-28T11:22:59;2.70;;;0.90;;
23302;SDS011;11820;48.738;9.092;2022-12-28T11:25:28;1.63;;;0.73;;
23302;SDS011;11820;48.738;9.092;2022-12-28T11:27:57;1.90;;;0.87;;
23302;SDS011;11820;48.738;9.092;2022-12-28T11:30:23;1.37;;;0.87;;
23302;SDS011;11820;48.738;9.092;2022-12-28T11:35:18;3.43;;;0.70;;
23302;SDS011;11820;48.738;9.092;2022-12-28T11:37:47;2.47;;;0.87;;
23302;SDS011;11820;48.738;9.092;2022-12-28T11:54:00;2.83;;;0.87;;
23302;SDS011;11820;48.738;9.092;2022-12-28T11:59:28;1.40;;;0.80;;
23302;SDS011;11820;48.738;9.092;2022-12-28T12:04:32;1.87;;;0.80;;
23302;SDS011;11820;48.738;9.092;2022-12-28T12:09:38;1.13;;;0.73;;
23302;SDS011;11820;48.738;9.092;2022-12-28T12:17:13;1.13;;;0.83;;
23302;SDS011;11820;48.738;9.092;2022-12-28T12:19:51;1.23;;;0.80;;
23302;SDS011;11820;48.738;9.092;2022-12-28T12:22:20;1.47;;;0.93;;
23302;SDS011;11820;48.738;9.092;2022-12-28T12:24:54;2.13;;;0.87;;
23302;SDS011;11820;48.738;9.092;2022-12-28T12:30:25;1.00;;;0.80;;
23302;SDS011;11820;48.738;9.092;2022-12-28T12:32:54;3.87;;;1.30;;
23302;SDS011;11820;48.738;9.092;2022-12-28T12:35:23;1.40;;;0.83;;
23302;SDS011;11820;48.738;9.092;2022-12-28T12:54:05;0.90;;;0.70;;
23302;SDS011;11820;48.738;9.092;2022-12-28T12:56:57;1.07;;;0.97;;
23302;SDS011;11820;48.738;9.092;2022-12-28T13:04:56;2.10;;;0.97;;
23302;SDS011;11820;48.738;9.092;2022-12-28T13:07:25;0.90;;;0.70;;
23302;SDS011;11820;48.738;9.092;2022-12-28T13:09:52;0.67;;;0.60;;
23302;SDS011;11820;48.738;9.092;2022-12-28T13:12:21;2.70;;;0.87;;
23302;SDS011;11820;48.738;9.092;2022-12-28T13:14:50;2.80;;;1.10;;
23302;SDS011;11820;48.738;9.092;2022-12-28T13:17:21;1.37;;;1.17;;
23302;SDS011;11820;48.738;9.092;2022-12-28T13:19:47;3.57;;;1.23;;
23302;SDS011;11820;48.738;9.092;2022-12-28T13:22:32;1.50;;;1.13;;
23302;SDS011;11820;48.738;9.092;2022-12-28T13:24:57;1.70;;;1.20;;
23302;SDS011;11820;48.738;9.092;2022-12-28T13:27:24;1.57;;;1.00;;
23302;SDS011;11820;48.738;9.092;2022-12-28T13:29:55;1.83;;;1.07;;
23302;SDS011;11820;48.738;9.092;2022-12-28T13:34:53;1.43;;;1.07;;
23302;SDS011;11820;48.738;9.092;2022-12-28T13:37:19;2.80;;;1.30;;
23302;SDS011;11820;48.738;9.092;2022-12-28T13:39:45;2.73;;;1.07;;
23302;SDS011;11820;48.738;9.092;2022-12-28T13:42:18;2.13;;;1.10;;
23302;SDS011;11820;48.738;9.092;2022-12-28T13:49:58;3.27;;;1.40;;
23302;SDS011;11820;48.738;9.092;2022-12-28T13:52:41;1.60;;;1.00;;
23302;SDS011;11820;48.738;9.092;2022-12-28T13:55:15;1.63;;;1.17;;
23302;SDS011;11820;48.738;9.092;2022-12-28T13:57:44;4.10;;;1.27;;
23302;SDS011;11820;48.738;9.092;2022-12-28T14:00:14;2.70;;;1.30;;
23302;SDS011;11820;48.738;9.092;2022-12-28T14:02:41;2.80;;;1.37;;
23302;SDS011;11820;48.738;9.092;2022-12-28T14:05:07;1.40;;;1.03;;
23302;SDS011;11820;48.738;9.092;2022-12-28T14:07:41;1.63;;;1.10;;
23302;SDS011;11820;48.738;9.092;2022-12-28T14:10:06;1.73;;;1.00;;
23302;SDS011;11820;48.738;9.092;2022-12-28T14:12:32;2.13;;;1.10;;
23302;SDS011;11820;48.738;9.092;2022-12-28T14:14:58;1.90;;;1.10;;
23302;SDS011;11820;48.738;9.092;2022-12-28T14:17:24;1.20;;;1.10;;
23302;SDS011;11820;48.738;9.092;2022-12-28T14:19:51;2.00;;;1.30;;
23302;SDS011;11820;48.738;9.092;2022-12-28T14:22:27;1.83;;;1.10;;
23302;SDS011;11820;48.738;9.092;2022-12-28T14:25:07;1.73;;;1.10;;
23302;SDS011;11820;48.738;9.092;2022-12-28T14:27:55;4.07;;;1.40;;
23302;SDS011;11820;48.738;9.092;2022-12-28T14:30:23;2.03;;;1.00;;
23302;SDS011;11820;48.738;9.092;2022-12-28T14:32:49;2.00;;;1.00;;
23302;SDS011;11820;48.738;9.092;2022-12-28T14:35:23;1.37;;;0.97;;
23302;SDS011;11820;48.738;9.092;2022-12-28T14:37:58;1.17;;;0.97;;
23302;SDS011;11820;48.738;9.092;2022-12-28T14:40:29;1.20;;;1.07;;
23302;SDS011;11820;48.738;9.092;2022-12-28T14:42:56;1.80;;;1.10;;
23302;SDS011;11820;48.738;9.092;2022-12-28T14:48:00;3.20;;;1.17;;
23302;SDS011;11820;48.738;9.092;2022-12-28T14:50:27;1.27;;;1.03;;
23302;SDS011;11820;48.738;9.092;2022-12-28T14:53:28;1.13;;;0.80;;
23302;SDS011;11820;48.738;9.092;2022-12-28T14:58:19;2.10;;;1.00;;
23302;SDS011;11820;48.738;9.092;2022-12-28T15:00:58;1.50;;;0.90;;
23302;SDS011;11820;48.738;9.092;2022-12-28T15:03:25;2.00;;;1.27;;
23302;SDS011;11820;48.738;9.092;2022-12-28T15:05:54;1.60;;;1.03;;
23302;SDS011;11820;48.738;9.092;2022-12-28T15:08:22;3.37;;;1.30;;
23302;SDS011;11820;48.738;9.092;2022-12-28T15:10:52;3.10;;;1.13;;
23302;SDS011;11820;48.738;9.092;2022-12-28T15:13:19;2.23;;;1.30;;
23302;SDS011;11820;48.738;9.092;2022-12-28T15:15:56;1.50;;;1.00;;
23302;SDS011;11820;48.738;9.092;2022-12-28T15:18:23;3.83;;;1.03;;
23302;SDS011;11820;48.738;9.092;2022-12-28T15:20:49;2.03;;;1.10;;
23302;SDS011;11820;48.738;9.092;2022-12-28T15:23:15;1.67;;;1.20;;
23302;SDS011;11820;48.738;9.092;2022-12-28T15:25:40;2.93;;;1.50;;
23302;SDS011;11820;48.738;9.092;2022-12-28T15:28:05;3.23;;;1.50;;
23302;SDS011;11820;48.738;9.092;2022-12-28T15:30:31;1.20;;;1.10;;
23302;SDS011;11820;48.738;9.092;2022-12-28T15:32:56;1.47;;;1.20;;
23302;SDS011;11820;48.738;9.092;2022-12-28T15:35:21;6.83;;;1.80;;
23302;SDS011;11820;48.738;9.092;2022-12-28T15:37:46;3.00;;;1.47;;
23302;SDS011;11820;48.738;9.092;2022-12-28T15:40:12;2.17;;;1.37;;
23302;SDS011;11820;48.738;9.092;2022-12-28T15:42:37;2.23;;;1.50;;
23302;SDS011;11820;48.738;9.092;2022-12-28T15:45:03;3.90;;;1.63;;
23302;SDS011;11820;48.738;9.092;2022-12-28T15:47:29;3.83;;;1.90;;
23302;SDS011;11820;48.738;9.092;2022-12-28T15:49:54;5.03;;;1.90;;
23302;SDS011;11820;48.738;9.092;2022-12-28T15:52:21;4.20;;;2.07;;
23302;SDS011;11820;48.738;9.092;2022-12-28T15:54:47;2.63;;;1.70;;
23302;SDS011;11820;48.738;9.092;2022-12-28T15:57:12;2.63;;;1.57;;
23302;SDS011;11820;48.738;9.092;2022-12-28T15:59:39;6.70;;;2.10;;
23302;SDS011;11820;48.738;9.092;2022-12-28T16:02:04;2.40;;;1.90;;
23302;SDS011;11820;48.738;9.092;2022-12-28T16:04:30;3.17;;;1.90;;
23302;SDS011;11820;48.738;9.092;2022-12-28T16:06:55;4.17;;;1.67;;
23302;SDS011;11820;48.738;9.092;2022-12-28T16:09:21;5.37;;;1.67;;
23302;SDS011;11820;48.738;9.092;2022-12-28T16:11:46;4.13;;;1.80;;
23302;SDS011;11820;48.738;9.092;2022-12-28T16:14:12;2.83;;;1.67;;
23302;SDS011;11820;48.738;9.092;2022-12-28T16:16:39;3.40;;;1.70;;
23302;SDS011;11820;48.738;9.092;2022-12-28T16:19:05;4.87;;;1.80;;
23302;SDS011;11820;48.738;9.092;2022-12-28T16:21:31;2.00;;;1.40;;
23302;SDS011;11820;48.738;9.092;2022-12-28T16:23:57;3.03;;;2.10;;
23302;SDS011;11820;48.738;9.092;2022-12-28T16:26:24;2.43;;;1.37;;
23302;SDS011;11820;48.738;9.092;2022-12-28T16:28:49;3.20;;;1.60;;
23302;SDS011;11820;48.738;9.092;2022-12-28T16:33:50;2.30;;;1.53;;
23302;SDS011;11820;48.738;9.092;2022-12-28T16:36:17;1.80;;;1.50;;
23302;SDS011;11820;48.738;9.092;2022-12-28T16:38:44;1.93;;;1.60;;
23302;SDS011;11820;48.738;9.092;2022-12-28T16:41:09;1.67;;;1.40;;